UAE1WT OMDB-VTBS
Flight info
| Callsign | UAE1WT |
|---|---|
| Flight time | 5h 30m |
| Altitude | 41000 |
| Route | IVURO M677 LALDO B505 NADSO B524 ALPOR M504 TELEM A791 BPL T1 BBS N895 BETNO P646 TARED WILLA1C |
| Aircraft | A359/H-SDE2E3GHIJ1J3J4J5LM1ORWXY/LB1D1 |
Departure
| Time | 2026-04-24 09:42 |
|---|---|
| Airport | Dubai International Airport (OMDB) |
Arrival
| Time | 2026-04-24 15:13 |
|---|---|
| Airport | Suvarnabhumi Airport (VTBS) |
| Time | Latitude | Longitude | Altitude | Speed | Heading |
|---|---|---|---|---|---|
| 2026-04-24 09:22 | 25.24593 | 55.36425 | 27 ft | 0 kts | 31° |
| 2026-04-24 09:33 | 25.24591 | 55.36424 | 27 ft | 2 kts | 31° |
| 2026-04-24 09:33 | 25.24577 | 55.36415 | 26 ft | 2 kts | 31° |
| 2026-04-24 09:33 | 25.24563 | 55.36405 | 26 ft | 2 kts | 31° |
| 2026-04-24 09:34 | 25.24549 | 55.36396 | 25 ft | 2 kts | 30° |
| 2026-04-24 09:34 | 25.24535 | 55.36386 | 26 ft | 2 kts | 53° |
| 2026-04-24 09:34 | 25.24530 | 55.36369 | 25 ft | 2 kts | 103° |
| 2026-04-24 09:34 | 25.24536 | 55.36352 | 25 ft | 2 kts | 117° |
| 2026-04-24 09:35 | 25.24539 | 55.36345 | 26 ft | 0 kts | 120° |
| 2026-04-24 09:36 | 25.24518 | 55.36388 | 26 ft | 12 kts | 119° |
| 2026-04-24 09:36 | 25.24461 | 55.36501 | 27 ft | 21 kts | 108° |
| 2026-04-24 09:36 | 25.24483 | 55.36636 | 27 ft | 15 kts | 50° |
| 2026-04-24 09:37 | 25.24566 | 55.36711 | 27 ft | 16 kts | 32° |
| 2026-04-24 09:37 | 25.24661 | 55.36776 | 28 ft | 16 kts | 32° |
| 2026-04-24 09:37 | 25.24760 | 55.36845 | 28 ft | 17 kts | 32° |
| 2026-04-24 09:37 | 25.24806 | 55.36928 | 29 ft | 9 kts | 104° |
| 2026-04-24 09:38 | 25.24772 | 55.36998 | 29 ft | 13 kts | 121° |
| 2026-04-24 09:38 | 25.24719 | 55.37093 | 30 ft | 16 kts | 121° |
| 2026-04-24 09:38 | 25.24654 | 55.37209 | 29 ft | 19 kts | 124° |
| 2026-04-24 09:38 | 25.24578 | 55.37345 | 29 ft | 22 kts | 121° |
| 2026-04-24 09:39 | 25.24492 | 55.37500 | 29 ft | 25 kts | 121° |
| 2026-04-24 09:39 | 25.24394 | 55.37674 | 29 ft | 28 kts | 122° |
| 2026-04-24 09:39 | 25.24348 | 55.37824 | 29 ft | 9 kts | 58° |
| 2026-04-24 09:39 | 25.24391 | 55.37859 | 33 ft | 9 kts | 35° |
| 2026-04-24 09:40 | 25.24440 | 55.37898 | 36 ft | 9 kts | 36° |
| 2026-04-24 09:40 | 25.24505 | 55.37947 | 36 ft | 14 kts | 34° |
| 2026-04-24 09:40 | 25.24601 | 55.38019 | 31 ft | 21 kts | 33° |
| 2026-04-24 09:40 | 25.24720 | 55.38096 | 36 ft | 18 kts | 17° |
| 2026-04-24 09:41 | 25.24800 | 55.38040 | 36 ft | 8 kts | 301° |
| 2026-04-24 09:41 | 25.24801 | 55.38038 | 36 ft | 0 kts | 302° |
| 2026-04-24 09:41 | 25.24854 | 55.37942 | 36 ft | 45 kts | 302° |
| 2026-04-24 09:41 | 25.25139 | 55.37429 | 38 ft | 110 kts | 301° |
| 2026-04-24 09:42 | 25.25636 | 55.36529 | 35 ft | 164 kts | 302° |
| 2026-04-24 09:42 | 25.26265 | 55.35369 | 477 ft | 174 kts | 303° |
| 2026-04-24 09:42 | 25.26871 | 55.34252 | 1296 ft | 170 kts | 305° |
| 2026-04-24 09:42 | 25.27527 | 55.33082 | 1737 ft | 190 kts | 304° |
| 2026-04-24 09:43 | 25.28269 | 55.31778 | 2069 ft | 210 kts | 304° |
| 2026-04-24 09:43 | 25.29102 | 55.30419 | 2600 ft | 221 kts | 312° |
| 2026-04-24 09:43 | 25.30390 | 55.29516 | 3146 ft | 225 kts | 347° |
| 2026-04-24 09:43 | 25.31959 | 55.29398 | 3695 ft | 229 kts | 0° |
| 2026-04-24 09:44 | 25.33577 | 55.29461 | 4152 ft | 237 kts | 1° |
| 2026-04-24 09:44 | 25.35247 | 55.29538 | 4669 ft | 243 kts | 2° |
| 2026-04-24 09:44 | 25.36954 | 55.29616 | 5164 ft | 248 kts | 1° |
| 2026-04-24 09:44 | 25.38691 | 55.29744 | 5629 ft | 253 kts | 8° |
| 2026-04-24 09:45 | 25.40325 | 55.30495 | 6026 ft | 262 kts | 37° |
| 2026-04-24 09:45 | 25.41633 | 55.31975 | 6270 ft | 277 kts | 50° |
| 2026-04-24 09:45 | 25.42857 | 55.33684 | 6593 ft | 288 kts | 52° |
| 2026-04-24 09:45 | 25.44096 | 55.35448 | 7028 ft | 293 kts | 52° |
| 2026-04-24 09:46 | 25.45362 | 55.37233 | 7490 ft | 297 kts | 51° |
| 2026-04-24 09:46 | 25.46655 | 55.39032 | 7995 ft | 300 kts | 51° |
| 2026-04-24 09:46 | 25.47966 | 55.40847 | 8479 ft | 304 kts | 50° |
| 2026-04-24 09:46 | 25.49277 | 55.42691 | 8999 ft | 307 kts | 51° |
| 2026-04-24 09:47 | 25.50596 | 55.44563 | 9514 ft | 310 kts | 51° |
| 2026-04-24 09:47 | 25.51903 | 55.46473 | 10003 ft | 314 kts | 54° |
| 2026-04-24 09:47 | 25.52825 | 55.48709 | 10214 ft | 328 kts | 78° |
| 2026-04-24 09:47 | 25.52796 | 55.51249 | 10389 ft | 338 kts | 105° |
| 2026-04-24 09:48 | 25.51813 | 55.53633 | 10621 ft | 346 kts | 123° |
| 2026-04-24 09:48 | 25.50482 | 55.55891 | 10860 ft | 356 kts | 126° |
| 2026-04-24 09:48 | 25.49091 | 55.58197 | 11091 ft | 366 kts | 126° |
| 2026-04-24 09:48 | 25.47677 | 55.60583 | 11291 ft | 375 kts | 125° |
| 2026-04-24 09:49 | 25.46247 | 55.63039 | 11554 ft | 382 kts | 124° |
| 2026-04-24 09:49 | 25.44815 | 55.65523 | 11951 ft | 384 kts | 124° |
| 2026-04-24 09:49 | 25.43396 | 55.68038 | 12317 ft | 388 kts | 122° |
| 2026-04-24 09:49 | 25.42322 | 55.70795 | 12686 ft | 393 kts | 108° |
| 2026-04-24 09:50 | 25.41635 | 55.73734 | 13091 ft | 396 kts | 105° |
| 2026-04-24 09:50 | 25.41018 | 55.76712 | 13453 ft | 398 kts | 104° |
| 2026-04-24 09:50 | 25.40397 | 55.79706 | 13799 ft | 401 kts | 104° |
| 2026-04-24 09:50 | 25.39767 | 55.82721 | 14105 ft | 404 kts | 104° |
| 2026-04-24 09:51 | 25.39128 | 55.85753 | 14420 ft | 406 kts | 104° |
| 2026-04-24 09:51 | 25.38481 | 55.88803 | 14713 ft | 410 kts | 104° |
| 2026-04-24 09:51 | 25.37827 | 55.91880 | 15035 ft | 412 kts | 104° |
| 2026-04-24 09:51 | 25.37166 | 55.94977 | 15378 ft | 415 kts | 104° |
| 2026-04-24 09:52 | 25.36501 | 55.98087 | 15688 ft | 417 kts | 104° |
| 2026-04-24 09:52 | 25.35829 | 56.01221 | 16028 ft | 420 kts | 104° |
| 2026-04-24 09:52 | 25.35154 | 56.04364 | 16374 ft | 422 kts | 104° |
| 2026-04-24 09:52 | 25.34474 | 56.07525 | 16722 ft | 424 kts | 104° |
| 2026-04-24 09:53 | 25.33791 | 56.10704 | 17085 ft | 425 kts | 104° |
| 2026-04-24 09:53 | 25.33106 | 56.13888 | 17431 ft | 427 kts | 103° |
| 2026-04-24 09:53 | 25.32571 | 56.17130 | 17785 ft | 429 kts | 99° |
| 2026-04-24 09:53 | 25.32205 | 56.20406 | 18142 ft | 431 kts | 96° |
| 2026-04-24 09:54 | 25.31931 | 56.23706 | 18450 ft | 432 kts | 95° |
| 2026-04-24 09:54 | 25.31696 | 56.27026 | 18750 ft | 434 kts | 95° |
| 2026-04-24 09:54 | 25.31467 | 56.30363 | 19050 ft | 435 kts | 95° |
| 2026-04-24 09:54 | 25.31228 | 56.33699 | 19350 ft | 437 kts | 95° |
| 2026-04-24 09:55 | 25.30972 | 56.37052 | 19624 ft | 439 kts | 95° |
| 2026-04-24 09:55 | 25.30726 | 56.40423 | 19890 ft | 441 kts | 94° |
| 2026-04-24 09:55 | 25.30565 | 56.43818 | 20173 ft | 443 kts | 93° |
| 2026-04-24 09:55 | 25.30461 | 56.47222 | 20432 ft | 445 kts | 92° |
| 2026-04-24 09:56 | 25.30382 | 56.50649 | 20703 ft | 447 kts | 92° |
| 2026-04-24 09:56 | 25.30307 | 56.54039 | 20963 ft | 448 kts | 92° |
| 2026-04-24 09:56 | 25.30142 | 56.57527 | 21208 ft | 450 kts | 97° |
| 2026-04-24 09:56 | 25.29577 | 56.60881 | 21447 ft | 450 kts | 106° |
| 2026-04-24 09:57 | 25.28616 | 56.64174 | 21720 ft | 451 kts | 111° |
| 2026-04-24 09:57 | 25.27500 | 56.67416 | 21954 ft | 452 kts | 113° |
| 2026-04-24 09:57 | 25.26294 | 56.70631 | 22186 ft | 454 kts | 114° |
| 2026-04-24 09:57 | 25.25043 | 56.73839 | 22436 ft | 455 kts | 115° |
| 2026-04-24 09:58 | 25.23779 | 56.77053 | 22658 ft | 457 kts | 115° |
| 2026-04-24 09:58 | 25.22515 | 56.80287 | 22895 ft | 459 kts | 115° |
| 2026-04-24 09:58 | 25.21258 | 56.83532 | 23137 ft | 461 kts | 115° |
| 2026-04-24 09:58 | 25.20005 | 56.86796 | 23353 ft | 463 kts | 114° |
| 2026-04-24 09:59 | 25.18753 | 56.90076 | 23554 ft | 465 kts | 114° |
| 2026-04-24 09:59 | 25.17497 | 56.93375 | 23728 ft | 466 kts | 114° |
| 2026-04-24 09:59 | 25.16240 | 56.96681 | 23918 ft | 468 kts | 114° |
| 2026-04-24 09:59 | 25.14979 | 56.99994 | 24110 ft | 469 kts | 114° |
| 2026-04-24 10:00 | 25.13711 | 57.03322 | 24285 ft | 471 kts | 114° |
| 2026-04-24 10:00 | 25.12438 | 57.06658 | 24485 ft | 472 kts | 114° |
| 2026-04-24 10:00 | 25.11159 | 57.10006 | 24668 ft | 474 kts | 114° |
| 2026-04-24 10:00 | 25.09877 | 57.13363 | 24843 ft | 476 kts | 114° |
| 2026-04-24 10:01 | 25.08591 | 57.16726 | 25043 ft | 477 kts | 114° |
| 2026-04-24 10:01 | 25.07298 | 57.20098 | 25220 ft | 478 kts | 114° |
| 2026-04-24 10:01 | 25.06002 | 57.23478 | 25432 ft | 479 kts | 114° |
| 2026-04-24 10:01 | 25.04700 | 57.26870 | 25609 ft | 481 kts | 114° |
| 2026-04-24 10:02 | 25.03394 | 57.30269 | 25799 ft | 482 kts | 114° |
| 2026-04-24 10:02 | 25.02084 | 57.33676 | 25996 ft | 483 kts | 114° |
| 2026-04-24 10:02 | 25.00771 | 57.37089 | 26185 ft | 485 kts | 114° |
| 2026-04-24 10:02 | 24.99453 | 57.40514 | 26380 ft | 486 kts | 114° |
| 2026-04-24 10:03 | 24.98130 | 57.43949 | 26576 ft | 487 kts | 114° |
| 2026-04-24 10:03 | 24.96804 | 57.47389 | 26778 ft | 489 kts | 114° |
| 2026-04-24 10:03 | 24.95472 | 57.50840 | 26966 ft | 490 kts | 114° |
| 2026-04-24 10:03 | 24.94136 | 57.54300 | 27166 ft | 492 kts | 114° |
| 2026-04-24 10:04 | 24.92794 | 57.57772 | 27375 ft | 493 kts | 114° |
| 2026-04-24 10:04 | 24.91448 | 57.61249 | 27575 ft | 494 kts | 113° |
| 2026-04-24 10:04 | 24.90098 | 57.64739 | 27781 ft | 496 kts | 113° |
| 2026-04-24 10:04 | 24.88742 | 57.68237 | 27987 ft | 497 kts | 113° |
| 2026-04-24 10:05 | 24.87400 | 57.71699 | 28193 ft | 499 kts | 113° |
| 2026-04-24 10:05 | 24.86480 | 57.74070 | 28319 ft | 500 kts | 113° |
| 2026-04-24 10:05 | 24.84665 | 57.78743 | 28621 ft | 502 kts | 113° |
| 2026-04-24 10:05 | 24.83419 | 57.82396 | 28814 ft | 504 kts | 107° |
| 2026-04-24 10:06 | 24.82797 | 57.84856 | 28958 ft | 505 kts | 104° |
| 2026-04-24 10:06 | 24.81156 | 57.92381 | 29396 ft | 507 kts | 102° |
| 2026-04-24 10:06 | 24.80393 | 57.96180 | 29600 ft | 509 kts | 102° |
| 2026-04-24 10:07 | 24.79393 | 58.01227 | 29882 ft | 511 kts | 102° |
| 2026-04-24 10:07 | 24.78631 | 58.05051 | 30064 ft | 512 kts | 102° |
| 2026-04-24 10:07 | 24.78112 | 58.07643 | 30176 ft | 514 kts | 102° |
| 2026-04-24 10:07 | 24.77082 | 58.12730 | 30404 ft | 516 kts | 102° |
| 2026-04-24 10:08 | 24.76552 | 58.15335 | 30531 ft | 517 kts | 102° |
| 2026-04-24 10:08 | 24.75504 | 58.20456 | 30772 ft | 519 kts | 102° |
| 2026-04-24 10:08 | 24.74977 | 58.23020 | 30915 ft | 520 kts | 102° |
| 2026-04-24 10:08 | 24.74178 | 58.26907 | 31082 ft | 521 kts | 102° |
| 2026-04-24 10:09 | 24.73365 | 58.30857 | 31269 ft | 523 kts | 102° |
| 2026-04-24 10:09 | 24.72572 | 58.34705 | 31441 ft | 524 kts | 102° |
| 2026-04-24 10:09 | 24.71764 | 58.38623 | 31613 ft | 526 kts | 102° |
| 2026-04-24 10:09 | 24.70953 | 58.42553 | 31786 ft | 527 kts | 102° |
| 2026-04-24 10:10 | 24.70139 | 58.46484 | 32042 ft | 527 kts | 102° |
| 2026-04-24 10:10 | 24.69316 | 58.50459 | 32308 ft | 526 kts | 102° |
| 2026-04-24 10:10 | 24.68502 | 58.54384 | 32544 ft | 526 kts | 102° |
| 2026-04-24 10:10 | 24.67698 | 58.58255 | 32785 ft | 527 kts | 102° |
| 2026-04-24 10:11 | 24.66882 | 58.62180 | 33040 ft | 527 kts | 102° |
| 2026-04-24 10:11 | 24.66065 | 58.66103 | 33302 ft | 527 kts | 102° |
| 2026-04-24 10:11 | 24.65236 | 58.70077 | 33566 ft | 527 kts | 101° |
| 2026-04-24 10:11 | 24.64427 | 58.73954 | 33820 ft | 527 kts | 101° |
| 2026-04-24 10:12 | 24.63607 | 58.77876 | 34054 ft | 527 kts | 101° |
| 2026-04-24 10:12 | 24.62783 | 58.81811 | 34250 ft | 528 kts | 101° |
| 2026-04-24 10:12 | 24.61959 | 58.85742 | 34467 ft | 528 kts | 101° |
| 2026-04-24 10:12 | 24.61133 | 58.89677 | 34671 ft | 529 kts | 101° |
| 2026-04-24 10:13 | 24.60303 | 58.93622 | 34876 ft | 530 kts | 101° |
| 2026-04-24 10:13 | 24.59473 | 58.97565 | 35088 ft | 530 kts | 101° |
| 2026-04-24 10:13 | 24.58640 | 59.01520 | 35307 ft | 531 kts | 101° |
| 2026-04-24 10:13 | 24.57805 | 59.05474 | 35509 ft | 532 kts | 101° |
| 2026-04-24 10:14 | 24.56968 | 59.09433 | 35717 ft | 532 kts | 101° |
| 2026-04-24 10:14 | 24.56130 | 59.13394 | 35949 ft | 533 kts | 101° |
| 2026-04-24 10:14 | 24.55290 | 59.17357 | 36167 ft | 533 kts | 101° |
| 2026-04-24 10:14 | 24.54448 | 59.21326 | 36373 ft | 534 kts | 101° |
| 2026-04-24 10:15 | 24.53604 | 59.25296 | 36583 ft | 534 kts | 101° |
| 2026-04-24 10:15 | 24.52756 | 59.29274 | 36803 ft | 535 kts | 101° |
| 2026-04-24 10:15 | 24.51908 | 59.33249 | 37024 ft | 535 kts | 101° |
| 2026-04-24 10:15 | 24.51059 | 59.37225 | 37238 ft | 536 kts | 101° |
| 2026-04-24 10:16 | 24.50206 | 59.41214 | 37450 ft | 536 kts | 101° |
| 2026-04-24 10:16 | 24.49353 | 59.45194 | 37676 ft | 536 kts | 102° |
| 2026-04-24 10:16 | 24.48499 | 59.49181 | 37891 ft | 536 kts | 102° |
| 2026-04-24 10:16 | 24.47642 | 59.53167 | 38094 ft | 537 kts | 102° |
| 2026-04-24 10:17 | 24.46785 | 59.57155 | 38301 ft | 537 kts | 102° |
| 2026-04-24 10:17 | 24.45927 | 59.61141 | 38508 ft | 537 kts | 102° |
| 2026-04-24 10:17 | 24.45067 | 59.65130 | 38675 ft | 537 kts | 102° |
| 2026-04-24 10:17 | 24.44218 | 59.69061 | 38852 ft | 537 kts | 102° |
| 2026-04-24 10:18 | 24.43358 | 59.73038 | 39028 ft | 536 kts | 102° |
| 2026-04-24 10:18 | 24.42496 | 59.77020 | 39195 ft | 536 kts | 102° |
| 2026-04-24 10:18 | 24.41635 | 59.80993 | 39369 ft | 535 kts | 102° |
| 2026-04-24 10:18 | 24.40773 | 59.84964 | 39527 ft | 535 kts | 102° |
| 2026-04-24 10:19 | 24.39909 | 59.88936 | 39679 ft | 535 kts | 102° |
| 2026-04-24 10:19 | 24.39045 | 59.92906 | 39837 ft | 535 kts | 102° |
| 2026-04-24 10:19 | 24.38181 | 59.96872 | 39989 ft | 534 kts | 102° |
| 2026-04-24 10:19 | 24.37317 | 60.00834 | 40132 ft | 534 kts | 102° |
| 2026-04-24 10:20 | 24.36451 | 60.04796 | 40273 ft | 534 kts | 102° |
| 2026-04-24 10:20 | 24.35585 | 60.08756 | 40413 ft | 534 kts | 102° |
| 2026-04-24 10:20 | 24.34718 | 60.12715 | 40571 ft | 533 kts | 102° |
| 2026-04-24 10:20 | 24.33851 | 60.16669 | 40688 ft | 533 kts | 102° |
| 2026-04-24 10:21 | 24.32984 | 60.20618 | 40798 ft | 534 kts | 103° |
| 2026-04-24 10:21 | 24.31243 | 60.28538 | 40819 ft | 534 kts | 103° |
| 2026-04-24 10:22 | 24.29501 | 60.36438 | 40818 ft | 533 kts | 103° |
| 2026-04-24 10:22 | 24.27755 | 60.44339 | 40819 ft | 533 kts | 103° |
| 2026-04-24 10:23 | 24.26007 | 60.52227 | 40821 ft | 533 kts | 103° |
| 2026-04-24 10:23 | 24.24255 | 60.60113 | 40822 ft | 532 kts | 103° |
| 2026-04-24 10:24 | 24.22500 | 60.67991 | 40821 ft | 532 kts | 103° |
| 2026-04-24 10:24 | 24.20743 | 60.75856 | 40822 ft | 532 kts | 103° |
| 2026-04-24 10:25 | 24.18986 | 60.83721 | 40819 ft | 531 kts | 103° |
| 2026-04-24 10:25 | 24.17227 | 60.91581 | 40816 ft | 531 kts | 103° |
| 2026-04-24 10:26 | 24.15465 | 60.99432 | 40820 ft | 531 kts | 103° |
| 2026-04-24 10:26 | 24.13700 | 61.07278 | 40819 ft | 531 kts | 103° |
| 2026-04-24 10:27 | 24.11931 | 61.15119 | 40819 ft | 530 kts | 103° |
| 2026-04-24 10:27 | 24.10159 | 61.22957 | 40822 ft | 530 kts | 103° |
| 2026-04-24 10:28 | 24.08394 | 61.30787 | 40820 ft | 530 kts | 101° |
| 2026-04-24 10:28 | 24.07463 | 61.38758 | 40822 ft | 528 kts | 93° |
| 2026-04-24 10:29 | 24.06936 | 61.46761 | 40817 ft | 527 kts | 92° |
| 2026-04-24 10:29 | 24.06495 | 61.54764 | 40819 ft | 527 kts | 91° |
| 2026-04-24 10:30 | 24.06049 | 61.62764 | 40821 ft | 527 kts | 92° |
| 2026-04-24 10:30 | 24.05579 | 61.70706 | 40817 ft | 527 kts | 92° |
| 2026-04-24 10:31 | 24.05091 | 61.78697 | 40819 ft | 527 kts | 92° |
| 2026-04-24 10:31 | 24.04596 | 61.86689 | 40819 ft | 526 kts | 92° |
| 2026-04-24 10:32 | 24.04094 | 61.94733 | 40787 ft | 526 kts | 92° |
| 2026-04-24 10:32 | 24.03597 | 62.02638 | 40818 ft | 524 kts | 92° |
| 2026-04-24 10:33 | 24.03095 | 62.10582 | 40820 ft | 523 kts | 92° |
| 2026-04-24 10:33 | 24.02590 | 62.18519 | 40818 ft | 523 kts | 92° |
| 2026-04-24 10:34 | 24.02080 | 62.26456 | 40819 ft | 523 kts | 92° |
| 2026-04-24 10:34 | 24.01566 | 62.34393 | 40817 ft | 523 kts | 92° |
| 2026-04-24 10:35 | 24.01047 | 62.42322 | 40816 ft | 522 kts | 92° |
| 2026-04-24 10:35 | 24.00526 | 62.50247 | 40815 ft | 522 kts | 92° |
| 2026-04-24 10:36 | 24.00000 | 62.58163 | 40815 ft | 522 kts | 92° |
| 2026-04-24 10:36 | 23.99470 | 62.66084 | 40816 ft | 522 kts | 92° |
| 2026-04-24 10:37 | 23.98937 | 62.74000 | 40816 ft | 522 kts | 92° |
| 2026-04-24 10:37 | 23.98399 | 62.81912 | 40818 ft | 522 kts | 92° |
| 2026-04-24 10:38 | 23.97858 | 62.89818 | 40819 ft | 521 kts | 92° |
| 2026-04-24 10:38 | 23.97313 | 62.97716 | 40819 ft | 521 kts | 93° |
| 2026-04-24 10:39 | 23.96764 | 63.05612 | 40821 ft | 521 kts | 93° |
| 2026-04-24 10:39 | 23.96211 | 63.13509 | 40818 ft | 520 kts | 93° |
| 2026-04-24 10:40 | 23.95655 | 63.21396 | 40818 ft | 520 kts | 93° |
| 2026-04-24 10:40 | 23.95095 | 63.29277 | 40815 ft | 520 kts | 93° |
| 2026-04-24 10:41 | 23.94532 | 63.37155 | 40820 ft | 520 kts | 93° |
| 2026-04-24 10:41 | 23.93965 | 63.45023 | 40815 ft | 519 kts | 93° |
| 2026-04-24 10:42 | 23.93394 | 63.52893 | 40814 ft | 519 kts | 93° |
| 2026-04-24 10:42 | 23.92819 | 63.60754 | 40816 ft | 519 kts | 93° |
| 2026-04-24 10:43 | 23.92241 | 63.68609 | 40815 ft | 518 kts | 93° |
| 2026-04-24 10:43 | 23.91659 | 63.76461 | 40818 ft | 518 kts | 93° |
| 2026-04-24 10:44 | 23.91077 | 63.84253 | 40815 ft | 518 kts | 93° |
| 2026-04-24 10:44 | 23.90487 | 63.92098 | 40820 ft | 518 kts | 93° |
| 2026-04-24 10:45 | 23.89895 | 63.99935 | 40818 ft | 517 kts | 93° |
| 2026-04-24 10:45 | 23.89298 | 64.07763 | 40818 ft | 517 kts | 93° |
| 2026-04-24 10:46 | 23.88698 | 64.15595 | 40815 ft | 517 kts | 93° |
| 2026-04-24 10:46 | 23.88094 | 64.23413 | 40815 ft | 517 kts | 93° |
| 2026-04-24 10:47 | 23.87486 | 64.31236 | 40815 ft | 516 kts | 93° |
| 2026-04-24 10:47 | 23.86875 | 64.39047 | 40820 ft | 516 kts | 93° |
| 2026-04-24 10:48 | 23.86260 | 64.46858 | 40816 ft | 516 kts | 93° |
| 2026-04-24 10:48 | 23.85641 | 64.54666 | 40817 ft | 516 kts | 93° |
| 2026-04-24 10:49 | 23.85019 | 64.62469 | 40815 ft | 516 kts | 93° |
| 2026-04-24 10:49 | 23.84393 | 64.70271 | 40817 ft | 516 kts | 93° |
| 2026-04-24 10:50 | 23.83762 | 64.78071 | 40820 ft | 515 kts | 94° |
| 2026-04-24 10:50 | 23.83377 | 64.85870 | 40817 ft | 514 kts | 89° |
| 2026-04-24 10:51 | 23.83373 | 64.93668 | 40820 ft | 513 kts | 88° |
| 2026-04-24 10:51 | 23.83433 | 65.01462 | 40818 ft | 513 kts | 88° |
| 2026-04-24 10:52 | 23.83492 | 65.09261 | 40818 ft | 513 kts | 88° |
| 2026-04-24 10:52 | 23.83536 | 65.16997 | 40816 ft | 513 kts | 88° |
| 2026-04-24 10:53 | 23.83572 | 65.24789 | 40815 ft | 513 kts | 88° |
| 2026-04-24 10:53 | 23.83598 | 65.31316 | 40818 ft | 513 kts | 88° |
| 2026-04-24 10:54 | 23.83626 | 65.39104 | 40812 ft | 513 kts | 88° |
| 2026-04-24 10:54 | 23.83651 | 65.46890 | 40816 ft | 513 kts | 88° |
| 2026-04-24 10:55 | 23.83671 | 65.54623 | 40819 ft | 512 kts | 88° |
| 2026-04-24 10:55 | 23.83688 | 65.62401 | 40819 ft | 512 kts | 88° |
| 2026-04-24 10:56 | 23.83700 | 65.70182 | 40817 ft | 512 kts | 88° |
| 2026-04-24 10:56 | 23.83709 | 65.77953 | 40815 ft | 512 kts | 88° |
| 2026-04-24 10:57 | 23.83714 | 65.85722 | 40817 ft | 511 kts | 88° |
| 2026-04-24 10:57 | 23.83715 | 65.93493 | 40815 ft | 511 kts | 88° |
| 2026-04-24 10:58 | 23.83712 | 66.01251 | 40814 ft | 511 kts | 88° |
| 2026-04-24 10:58 | 23.83705 | 66.09007 | 40816 ft | 510 kts | 88° |
| 2026-04-24 10:59 | 23.83695 | 66.16757 | 40817 ft | 510 kts | 88° |
| 2026-04-24 10:59 | 23.83680 | 66.24502 | 40814 ft | 510 kts | 88° |
| 2026-04-24 11:00 | 23.83662 | 66.32248 | 40815 ft | 510 kts | 88° |
| 2026-04-24 11:00 | 23.83640 | 66.39991 | 40813 ft | 510 kts | 88° |
| 2026-04-24 11:01 | 23.83614 | 66.47679 | 40815 ft | 510 kts | 88° |
| 2026-04-24 11:01 | 23.83584 | 66.55471 | 40815 ft | 510 kts | 88° |
| 2026-04-24 11:02 | 23.83550 | 66.63158 | 40816 ft | 509 kts | 88° |
| 2026-04-24 11:02 | 23.83512 | 66.70893 | 40816 ft | 509 kts | 88° |
| 2026-04-24 11:03 | 23.83471 | 66.78618 | 40815 ft | 509 kts | 88° |
| 2026-04-24 11:03 | 23.83426 | 66.86350 | 40815 ft | 509 kts | 88° |
| 2026-04-24 11:04 | 23.83377 | 66.94082 | 40814 ft | 508 kts | 88° |
| 2026-04-24 11:04 | 23.83707 | 67.01762 | 40819 ft | 505 kts | 79° |
| 2026-04-24 11:05 | 23.84828 | 67.09337 | 40814 ft | 505 kts | 78° |
| 2026-04-24 11:05 | 23.86096 | 67.16873 | 40813 ft | 504 kts | 77° |
| 2026-04-24 11:06 | 23.87375 | 67.24402 | 40815 ft | 504 kts | 77° |
| 2026-04-24 11:06 | 23.88631 | 67.31935 | 40816 ft | 504 kts | 77° |
| 2026-04-24 11:07 | 23.90478 | 67.43183 | 40818 ft | 503 kts | 78° |
| 2026-04-24 11:07 | 23.91708 | 67.50711 | 40814 ft | 503 kts | 78° |
| 2026-04-24 11:08 | 23.92936 | 67.58243 | 40815 ft | 503 kts | 78° |
| 2026-04-24 11:08 | 23.94158 | 67.65766 | 40815 ft | 503 kts | 78° |
| 2026-04-24 11:09 | 23.95376 | 67.73286 | 40812 ft | 503 kts | 78° |
| 2026-04-24 11:09 | 23.96591 | 67.80809 | 40809 ft | 502 kts | 78° |
| 2026-04-24 11:10 | 23.97802 | 67.88335 | 40807 ft | 502 kts | 78° |
| 2026-04-24 11:10 | 23.99009 | 67.95859 | 40807 ft | 503 kts | 78° |
| 2026-04-24 11:11 | 24.00213 | 68.03389 | 40802 ft | 503 kts | 78° |
| 2026-04-24 11:11 | 24.01414 | 68.10919 | 40796 ft | 503 kts | 78° |
| 2026-04-24 11:12 | 24.02612 | 68.18453 | 40794 ft | 503 kts | 78° |
| 2026-04-24 11:12 | 24.03807 | 68.25993 | 40778 ft | 503 kts | 78° |
| 2026-04-24 11:13 | 24.04998 | 68.33535 | 40776 ft | 503 kts | 78° |
| 2026-04-24 11:13 | 24.06183 | 68.41074 | 40772 ft | 503 kts | 78° |
| 2026-04-24 11:14 | 24.07364 | 68.48610 | 40769 ft | 503 kts | 78° |
| 2026-04-24 11:14 | 24.08542 | 68.56149 | 40770 ft | 502 kts | 78° |
| 2026-04-24 11:15 | 24.09715 | 68.63683 | 40764 ft | 502 kts | 78° |
| 2026-04-24 11:15 | 24.10886 | 68.71226 | 40760 ft | 503 kts | 79° |
| 2026-04-24 11:16 | 24.11644 | 68.78831 | 40764 ft | 505 kts | 87° |
| 2026-04-24 11:16 | 24.11664 | 68.86517 | 40762 ft | 505 kts | 89° |
| 2026-04-24 11:17 | 24.11551 | 68.94214 | 40760 ft | 506 kts | 90° |
| 2026-04-24 11:17 | 24.11399 | 69.01914 | 40756 ft | 506 kts | 90° |
| 2026-04-24 11:18 | 24.11256 | 69.09615 | 40758 ft | 506 kts | 90° |
| 2026-04-24 11:18 | 24.11130 | 69.17270 | 40756 ft | 506 kts | 90° |
| 2026-04-24 11:19 | 24.11007 | 69.24977 | 40754 ft | 507 kts | 90° |
| 2026-04-24 11:19 | 24.10881 | 69.32686 | 40751 ft | 507 kts | 90° |
| 2026-04-24 11:20 | 24.10749 | 69.40399 | 40750 ft | 507 kts | 90° |
| 2026-04-24 11:20 | 24.10612 | 69.48158 | 40748 ft | 507 kts | 90° |
| 2026-04-24 11:21 | 24.10472 | 69.55819 | 40745 ft | 506 kts | 90° |
| 2026-04-24 11:21 | 24.10329 | 69.63519 | 40746 ft | 506 kts | 90° |
| 2026-04-24 11:22 | 24.10180 | 69.71272 | 40747 ft | 506 kts | 90° |
| 2026-04-24 11:22 | 24.10029 | 69.78916 | 40743 ft | 506 kts | 90° |
| 2026-04-24 11:23 | 24.09874 | 69.86608 | 40744 ft | 505 kts | 90° |
| 2026-04-24 11:23 | 24.09715 | 69.94293 | 40747 ft | 505 kts | 90° |
| 2026-04-24 11:24 | 24.09553 | 70.01974 | 40746 ft | 505 kts | 90° |
| 2026-04-24 11:24 | 24.09386 | 70.09652 | 40747 ft | 504 kts | 90° |
| 2026-04-24 11:25 | 24.09216 | 70.17324 | 40751 ft | 504 kts | 90° |
| 2026-04-24 11:25 | 24.09042 | 70.24996 | 40748 ft | 504 kts | 90° |
| 2026-04-24 11:26 | 24.08865 | 70.32664 | 40751 ft | 504 kts | 90° |
| 2026-04-24 11:26 | 24.08683 | 70.40331 | 40751 ft | 504 kts | 90° |
| 2026-04-24 11:27 | 24.08498 | 70.48001 | 40750 ft | 504 kts | 90° |
| 2026-04-24 11:27 | 24.08309 | 70.55679 | 40750 ft | 504 kts | 90° |
| 2026-04-24 11:28 | 24.08116 | 70.63349 | 40749 ft | 504 kts | 90° |
| 2026-04-24 11:28 | 24.07919 | 70.71022 | 40750 ft | 505 kts | 90° |
| 2026-04-24 11:29 | 24.07718 | 70.78700 | 40749 ft | 505 kts | 91° |
| 2026-04-24 11:29 | 24.07513 | 70.86381 | 40748 ft | 505 kts | 91° |
| 2026-04-24 11:30 | 24.07305 | 70.94057 | 40750 ft | 505 kts | 91° |
| 2026-04-24 11:30 | 24.07093 | 71.01733 | 40751 ft | 505 kts | 91° |
| 2026-04-24 11:31 | 24.06878 | 71.09415 | 40749 ft | 505 kts | 91° |
| 2026-04-24 11:31 | 24.06660 | 71.17098 | 40747 ft | 505 kts | 91° |
| 2026-04-24 11:32 | 24.06438 | 71.24786 | 40745 ft | 505 kts | 91° |
| 2026-04-24 11:32 | 24.06212 | 71.32473 | 40743 ft | 506 kts | 91° |
| 2026-04-24 11:33 | 24.05982 | 71.40159 | 40743 ft | 506 kts | 91° |
| 2026-04-24 11:33 | 24.05748 | 71.47849 | 40742 ft | 506 kts | 91° |
| 2026-04-24 11:34 | 24.05510 | 71.55542 | 40739 ft | 506 kts | 91° |
| 2026-04-24 11:34 | 24.05268 | 71.63240 | 40742 ft | 506 kts | 91° |
| 2026-04-24 11:35 | 24.05022 | 71.70943 | 40744 ft | 507 kts | 91° |
| 2026-04-24 11:35 | 24.04772 | 71.78650 | 40742 ft | 507 kts | 91° |
| 2026-04-24 11:36 | 24.04520 | 71.86308 | 40740 ft | 507 kts | 91° |
| 2026-04-24 11:36 | 24.04262 | 71.94024 | 40742 ft | 508 kts | 91° |
| 2026-04-24 11:37 | 24.04000 | 72.01748 | 40741 ft | 508 kts | 91° |
| 2026-04-24 11:37 | 24.03734 | 72.09480 | 40742 ft | 509 kts | 91° |
| 2026-04-24 11:38 | 24.03464 | 72.17209 | 40743 ft | 509 kts | 91° |
| 2026-04-24 11:38 | 24.03189 | 72.24946 | 40749 ft | 509 kts | 91° |
| 2026-04-24 11:39 | 24.02911 | 72.32684 | 40752 ft | 509 kts | 91° |
| 2026-04-24 11:39 | 24.02629 | 72.40434 | 40741 ft | 510 kts | 92° |
| 2026-04-24 11:40 | 24.02342 | 72.48182 | 40760 ft | 510 kts | 92° |
| 2026-04-24 11:40 | 24.02101 | 72.54623 | 40749 ft | 510 kts | 92° |
| 2026-04-24 11:41 | 24.01808 | 72.62379 | 40766 ft | 510 kts | 92° |
| 2026-04-24 11:41 | 24.01592 | 72.71439 | 40770 ft | 510 kts | 90° |
| 2026-04-24 11:42 | 24.01662 | 72.77893 | 40761 ft | 510 kts | 89° |
| 2026-04-24 11:42 | 24.01801 | 72.85647 | 40765 ft | 510 kts | 89° |
| 2026-04-24 11:43 | 24.01926 | 72.93414 | 40786 ft | 510 kts | 89° |
| 2026-04-24 11:43 | 24.02040 | 73.01182 | 40792 ft | 511 kts | 88° |
| 2026-04-24 11:44 | 24.02139 | 73.08953 | 40787 ft | 511 kts | 89° |
| 2026-04-24 11:44 | 24.02222 | 73.16729 | 40809 ft | 512 kts | 89° |
| 2026-04-24 11:45 | 24.02297 | 73.24512 | 40811 ft | 512 kts | 89° |
| 2026-04-24 11:45 | 24.02367 | 73.32296 | 40822 ft | 512 kts | 89° |
| 2026-04-24 11:46 | 24.02435 | 73.40075 | 40827 ft | 512 kts | 89° |
| 2026-04-24 11:46 | 24.02498 | 73.47856 | 40819 ft | 512 kts | 89° |
| 2026-04-24 11:47 | 24.02557 | 73.55597 | 40816 ft | 512 kts | 89° |
| 2026-04-24 11:47 | 24.02613 | 73.63382 | 40818 ft | 513 kts | 89° |
| 2026-04-24 11:48 | 24.02665 | 73.71186 | 40813 ft | 513 kts | 89° |
| 2026-04-24 11:48 | 24.02714 | 73.78988 | 40810 ft | 513 kts | 89° |
| 2026-04-24 11:49 | 24.02760 | 73.86800 | 40805 ft | 514 kts | 89° |
| 2026-04-24 11:49 | 24.02802 | 73.94619 | 40795 ft | 514 kts | 89° |
| 2026-04-24 11:50 | 24.02840 | 74.02438 | 40804 ft | 514 kts | 89° |
| 2026-04-24 11:50 | 24.02886 | 74.10260 | 40796 ft | 515 kts | 89° |
| 2026-04-24 11:51 | 24.02994 | 74.18093 | 40797 ft | 515 kts | 89° |
| 2026-04-24 11:51 | 24.03117 | 74.25933 | 40796 ft | 515 kts | 89° |
| 2026-04-24 11:52 | 24.03232 | 74.33774 | 40809 ft | 516 kts | 89° |
| 2026-04-24 11:52 | 24.03337 | 74.41615 | 40801 ft | 516 kts | 89° |
| 2026-04-24 11:53 | 24.03436 | 74.49459 | 40803 ft | 515 kts | 89° |
| 2026-04-24 11:53 | 24.03532 | 74.57302 | 40823 ft | 515 kts | 89° |
| 2026-04-24 11:54 | 24.03623 | 74.65132 | 40828 ft | 515 kts | 89° |
| 2026-04-24 11:54 | 24.03549 | 74.72964 | 40815 ft | 515 kts | 96° |
| 2026-04-24 11:55 | 24.02046 | 74.80603 | 40831 ft | 514 kts | 106° |
| 2026-04-24 11:55 | 24.00007 | 74.88091 | 40826 ft | 514 kts | 108° |
| 2026-04-24 11:56 | 23.97866 | 74.95554 | 40840 ft | 514 kts | 108° |
| 2026-04-24 11:56 | 23.95732 | 75.03012 | 40837 ft | 514 kts | 108° |
| 2026-04-24 11:57 | 23.93615 | 75.10476 | 40831 ft | 514 kts | 107° |
| 2026-04-24 11:57 | 23.91517 | 75.17891 | 40837 ft | 514 kts | 108° |
| 2026-04-24 11:58 | 23.89400 | 75.25358 | 40836 ft | 514 kts | 108° |
| 2026-04-24 11:58 | 23.87277 | 75.32830 | 40834 ft | 515 kts | 108° |
| 2026-04-24 11:59 | 23.85151 | 75.40293 | 40835 ft | 515 kts | 108° |
| 2026-04-24 11:59 | 23.83023 | 75.47752 | 40835 ft | 515 kts | 108° |
| 2026-04-24 12:00 | 23.80886 | 75.55223 | 40837 ft | 515 kts | 108° |
| 2026-04-24 12:00 | 23.78747 | 75.62688 | 40835 ft | 515 kts | 108° |
| 2026-04-24 12:01 | 23.76601 | 75.70164 | 40836 ft | 516 kts | 108° |
| 2026-04-24 12:01 | 23.74453 | 75.77630 | 40837 ft | 516 kts | 108° |
| 2026-04-24 12:02 | 23.72299 | 75.85102 | 40828 ft | 516 kts | 108° |
| 2026-04-24 12:02 | 23.70140 | 75.92576 | 40825 ft | 516 kts | 108° |
| 2026-04-24 12:03 | 23.67979 | 76.00041 | 40820 ft | 516 kts | 108° |
| 2026-04-24 12:03 | 23.65805 | 76.07510 | 40816 ft | 517 kts | 108° |
| 2026-04-24 12:04 | 23.63623 | 76.14976 | 40810 ft | 517 kts | 108° |
| 2026-04-24 12:04 | 23.61437 | 76.22439 | 40807 ft | 517 kts | 108° |
| 2026-04-24 12:05 | 23.59246 | 76.29910 | 40801 ft | 517 kts | 108° |
| 2026-04-24 12:05 | 23.57052 | 76.37378 | 40795 ft | 517 kts | 108° |
| 2026-04-24 12:06 | 23.54854 | 76.44845 | 40789 ft | 518 kts | 108° |
| 2026-04-24 12:06 | 23.52665 | 76.52266 | 40786 ft | 518 kts | 108° |
| 2026-04-24 12:07 | 23.50457 | 76.59739 | 40786 ft | 518 kts | 108° |
| 2026-04-24 12:07 | 23.48241 | 76.67220 | 40780 ft | 519 kts | 108° |
| 2026-04-24 12:08 | 23.46023 | 76.74696 | 40778 ft | 519 kts | 109° |
| 2026-04-24 12:08 | 23.43799 | 76.82179 | 40770 ft | 520 kts | 109° |
| 2026-04-24 12:09 | 23.41569 | 76.89667 | 40770 ft | 520 kts | 109° |
| 2026-04-24 12:09 | 23.39333 | 76.97160 | 40769 ft | 521 kts | 109° |
| 2026-04-24 12:10 | 23.37092 | 77.04654 | 40770 ft | 521 kts | 109° |
| 2026-04-24 12:11 | 23.33718 | 77.15912 | 40767 ft | 522 kts | 109° |
| 2026-04-24 12:11 | 23.31463 | 77.23416 | 40767 ft | 522 kts | 109° |
| 2026-04-24 12:12 | 23.29204 | 77.30922 | 40756 ft | 522 kts | 109° |
| 2026-04-24 12:12 | 23.26874 | 77.38352 | 40759 ft | 522 kts | 111° |
| 2026-04-24 12:13 | 23.24382 | 77.45772 | 40759 ft | 523 kts | 111° |
| 2026-04-24 12:13 | 23.21869 | 77.53184 | 40758 ft | 523 kts | 111° |
| 2026-04-24 12:14 | 23.19364 | 77.60611 | 40757 ft | 523 kts | 111° |
| 2026-04-24 12:14 | 23.16869 | 77.68036 | 40752 ft | 523 kts | 111° |
| 2026-04-24 12:15 | 23.14369 | 77.75473 | 40756 ft | 524 kts | 111° |
| 2026-04-24 12:15 | 23.11865 | 77.82905 | 40752 ft | 524 kts | 111° |
| 2026-04-24 12:16 | 23.09357 | 77.90336 | 40751 ft | 524 kts | 111° |
| 2026-04-24 12:16 | 23.06845 | 77.97763 | 40752 ft | 524 kts | 111° |
| 2026-04-24 12:17 | 23.04329 | 78.05191 | 40753 ft | 524 kts | 112° |
| 2026-04-24 12:17 | 23.01809 | 78.12614 | 40751 ft | 524 kts | 112° |
| 2026-04-24 12:18 | 22.99286 | 78.20036 | 40753 ft | 524 kts | 112° |
| 2026-04-24 12:18 | 22.96758 | 78.27458 | 40748 ft | 524 kts | 112° |
| 2026-04-24 12:19 | 22.94227 | 78.34878 | 40755 ft | 524 kts | 112° |
| 2026-04-24 12:19 | 22.91692 | 78.42299 | 40755 ft | 524 kts | 112° |
| 2026-04-24 12:20 | 22.89170 | 78.49669 | 40759 ft | 524 kts | 112° |
| 2026-04-24 12:20 | 22.86629 | 78.57082 | 40768 ft | 525 kts | 112° |
| 2026-04-24 12:21 | 22.84084 | 78.64491 | 40771 ft | 525 kts | 112° |
| 2026-04-24 12:21 | 22.81532 | 78.71910 | 40779 ft | 525 kts | 112° |
| 2026-04-24 12:22 | 22.78977 | 78.79322 | 40783 ft | 525 kts | 112° |
| 2026-04-24 12:22 | 22.76420 | 78.86728 | 40787 ft | 525 kts | 112° |
| 2026-04-24 12:23 | 22.73858 | 78.94137 | 40796 ft | 525 kts | 112° |
| 2026-04-24 12:23 | 22.71289 | 79.01552 | 40797 ft | 526 kts | 112° |
| 2026-04-24 12:24 | 22.68718 | 79.08960 | 40805 ft | 526 kts | 112° |
| 2026-04-24 12:24 | 22.66143 | 79.16369 | 40810 ft | 526 kts | 113° |
| 2026-04-24 12:25 | 22.63564 | 79.23777 | 40814 ft | 526 kts | 113° |
| 2026-04-24 12:25 | 22.60981 | 79.31181 | 40813 ft | 526 kts | 113° |
| 2026-04-24 12:26 | 22.58393 | 79.38587 | 40817 ft | 526 kts | 113° |
| 2026-04-24 12:26 | 22.55803 | 79.45997 | 40819 ft | 526 kts | 113° |
| 2026-04-24 12:27 | 22.53231 | 79.53408 | 40822 ft | 527 kts | 113° |
| 2026-04-24 12:27 | 22.50657 | 79.60832 | 40820 ft | 527 kts | 113° |
| 2026-04-24 12:28 | 22.48079 | 79.68250 | 40819 ft | 527 kts | 113° |
| 2026-04-24 12:28 | 22.45493 | 79.75671 | 40816 ft | 527 kts | 113° |
| 2026-04-24 12:29 | 22.42903 | 79.83091 | 40818 ft | 528 kts | 113° |
| 2026-04-24 12:29 | 22.40745 | 79.89262 | 40814 ft | 528 kts | 114° |
| 2026-04-24 12:30 | 22.38146 | 79.96683 | 40813 ft | 528 kts | 114° |
| 2026-04-24 12:30 | 22.35541 | 80.04108 | 40806 ft | 529 kts | 114° |
| 2026-04-24 12:31 | 22.32930 | 80.11539 | 40806 ft | 529 kts | 114° |
| 2026-04-24 12:31 | 22.30318 | 80.18962 | 40806 ft | 529 kts | 114° |
| 2026-04-24 12:32 | 22.27696 | 80.26401 | 40805 ft | 530 kts | 114° |
| 2026-04-24 12:32 | 22.25089 | 80.33782 | 40811 ft | 530 kts | 114° |
| 2026-04-24 12:33 | 22.22457 | 80.41224 | 40810 ft | 530 kts | 114° |
| 2026-04-24 12:33 | 22.19826 | 80.48658 | 40813 ft | 531 kts | 114° |
| 2026-04-24 12:34 | 22.17188 | 80.56103 | 40812 ft | 531 kts | 114° |
| 2026-04-24 12:34 | 22.14550 | 80.63540 | 40817 ft | 531 kts | 114° |
| 2026-04-24 12:35 | 22.11906 | 80.70980 | 40820 ft | 531 kts | 114° |
| 2026-04-24 12:35 | 22.09255 | 80.78423 | 40812 ft | 532 kts | 114° |
| 2026-04-24 12:36 | 22.06602 | 80.85863 | 40808 ft | 532 kts | 115° |
| 2026-04-24 12:36 | 22.03944 | 80.93303 | 40804 ft | 532 kts | 115° |
| 2026-04-24 12:37 | 22.01284 | 81.00738 | 40797 ft | 532 kts | 115° |
| 2026-04-24 12:37 | 21.98618 | 81.08174 | 40793 ft | 532 kts | 115° |
| 2026-04-24 12:38 | 21.95953 | 81.15600 | 40782 ft | 531 kts | 115° |
| 2026-04-24 12:38 | 21.93281 | 81.23032 | 40779 ft | 532 kts | 115° |
| 2026-04-24 12:39 | 21.87928 | 81.37886 | 40763 ft | 532 kts | 115° |
| 2026-04-24 12:40 | 21.85246 | 81.45310 | 40756 ft | 532 kts | 115° |
| 2026-04-24 12:40 | 21.82580 | 81.52675 | 40758 ft | 532 kts | 115° |
| 2026-04-24 12:41 | 21.79894 | 81.60085 | 40761 ft | 532 kts | 115° |
| 2026-04-24 12:41 | 21.77313 | 81.67545 | 40757 ft | 533 kts | 113° |
| 2026-04-24 12:42 | 21.75069 | 81.75161 | 40755 ft | 534 kts | 111° |
| 2026-04-24 12:42 | 21.72925 | 81.82820 | 40757 ft | 535 kts | 110° |
| 2026-04-24 12:43 | 21.70784 | 81.90470 | 40753 ft | 534 kts | 111° |
| 2026-04-24 12:43 | 21.68605 | 81.98108 | 40752 ft | 534 kts | 111° |
| 2026-04-24 12:44 | 21.66402 | 82.05733 | 40752 ft | 534 kts | 111° |
| 2026-04-24 12:44 | 21.64190 | 82.13356 | 40754 ft | 534 kts | 111° |
| 2026-04-24 12:45 | 21.61977 | 82.20966 | 40746 ft | 534 kts | 111° |
| 2026-04-24 12:45 | 21.59761 | 82.28578 | 40748 ft | 534 kts | 111° |
| 2026-04-24 12:46 | 21.57543 | 82.36189 | 40746 ft | 533 kts | 111° |
| 2026-04-24 12:46 | 21.55322 | 82.43794 | 40746 ft | 533 kts | 111° |
| 2026-04-24 12:47 | 21.53099 | 82.51390 | 40745 ft | 533 kts | 111° |
| 2026-04-24 12:47 | 21.50871 | 82.58992 | 40739 ft | 533 kts | 111° |
| 2026-04-24 12:48 | 21.48644 | 82.66583 | 40741 ft | 533 kts | 112° |
| 2026-04-24 12:48 | 21.46064 | 82.74014 | 40738 ft | 530 kts | 116° |
| 2026-04-24 12:49 | 21.43210 | 82.81298 | 40740 ft | 529 kts | 117° |
| 2026-04-24 12:49 | 21.40346 | 82.88566 | 40738 ft | 529 kts | 117° |
| 2026-04-24 12:50 | 21.37521 | 82.95841 | 40737 ft | 528 kts | 117° |
| 2026-04-24 12:50 | 21.34735 | 83.03068 | 40750 ft | 528 kts | 117° |
| 2026-04-24 12:51 | 21.31935 | 83.10337 | 40740 ft | 527 kts | 117° |
| 2026-04-24 12:51 | 21.29135 | 83.17592 | 40726 ft | 526 kts | 117° |
| 2026-04-24 12:52 | 21.26333 | 83.24836 | 40732 ft | 525 kts | 117° |
| 2026-04-24 12:52 | 21.23530 | 83.32065 | 40731 ft | 525 kts | 117° |
| 2026-04-24 12:53 | 21.20727 | 83.39286 | 40725 ft | 525 kts | 117° |
| 2026-04-24 12:53 | 21.17923 | 83.46501 | 40717 ft | 524 kts | 117° |
| 2026-04-24 12:54 | 21.15117 | 83.53711 | 40715 ft | 524 kts | 117° |
| 2026-04-24 12:54 | 21.12309 | 83.60913 | 40712 ft | 524 kts | 117° |
| 2026-04-24 12:55 | 21.09499 | 83.68111 | 40711 ft | 524 kts | 117° |
| 2026-04-24 12:55 | 21.06684 | 83.75310 | 40709 ft | 524 kts | 117° |
| 2026-04-24 12:56 | 21.03870 | 83.82494 | 40709 ft | 523 kts | 117° |
| 2026-04-24 12:56 | 21.01057 | 83.89676 | 40708 ft | 523 kts | 117° |
| 2026-04-24 12:57 | 20.98243 | 83.96851 | 40713 ft | 523 kts | 117° |
| 2026-04-24 12:57 | 20.95427 | 84.04020 | 40715 ft | 523 kts | 117° |
| 2026-04-24 12:58 | 20.92609 | 84.11179 | 40720 ft | 523 kts | 117° |
| 2026-04-24 12:58 | 20.89803 | 84.18298 | 40720 ft | 523 kts | 117° |
| 2026-04-24 12:59 | 20.86970 | 84.25473 | 40724 ft | 524 kts | 117° |
| 2026-04-24 12:59 | 20.84134 | 84.32648 | 40727 ft | 524 kts | 117° |
| 2026-04-24 13:00 | 20.81291 | 84.39831 | 40733 ft | 525 kts | 117° |
| 2026-04-24 13:00 | 20.78443 | 84.47019 | 40731 ft | 525 kts | 117° |
| 2026-04-24 13:01 | 20.75589 | 84.54212 | 40738 ft | 526 kts | 117° |
| 2026-04-24 13:01 | 20.72731 | 84.61403 | 40748 ft | 526 kts | 117° |
| 2026-04-24 13:02 | 20.69871 | 84.68585 | 40739 ft | 525 kts | 117° |
| 2026-04-24 13:02 | 20.67012 | 84.75760 | 40743 ft | 525 kts | 117° |
| 2026-04-24 13:03 | 20.64150 | 84.82927 | 40743 ft | 525 kts | 118° |
| 2026-04-24 13:03 | 20.61285 | 84.90096 | 40748 ft | 525 kts | 118° |
| 2026-04-24 13:04 | 20.58419 | 84.97251 | 40746 ft | 525 kts | 118° |
| 2026-04-24 13:04 | 20.55549 | 85.04410 | 40742 ft | 525 kts | 118° |
| 2026-04-24 13:05 | 20.52678 | 85.11564 | 40737 ft | 525 kts | 118° |
| 2026-04-24 13:05 | 20.49801 | 85.18721 | 40734 ft | 525 kts | 118° |
| 2026-04-24 13:06 | 20.46921 | 85.25876 | 40738 ft | 525 kts | 118° |
| 2026-04-24 13:06 | 20.44036 | 85.33027 | 40739 ft | 526 kts | 118° |
| 2026-04-24 13:07 | 20.41147 | 85.40187 | 40732 ft | 525 kts | 118° |
| 2026-04-24 13:07 | 20.38259 | 85.47339 | 40731 ft | 526 kts | 118° |
| 2026-04-24 13:08 | 20.35365 | 85.54494 | 40737 ft | 526 kts | 118° |
| 2026-04-24 13:08 | 20.32464 | 85.61653 | 40754 ft | 526 kts | 118° |
| 2026-04-24 13:09 | 20.28104 | 85.72388 | 40782 ft | 527 kts | 117° |
| 2026-04-24 13:09 | 20.25193 | 85.79545 | 40768 ft | 527 kts | 117° |
| 2026-04-24 13:10 | 20.22379 | 85.86763 | 40778 ft | 528 kts | 116° |
| 2026-04-24 13:10 | 20.19703 | 85.94050 | 40775 ft | 528 kts | 115° |
| 2026-04-24 13:11 | 20.17065 | 86.01344 | 40753 ft | 528 kts | 115° |
| 2026-04-24 13:11 | 20.14438 | 86.08590 | 40766 ft | 528 kts | 115° |
| 2026-04-24 13:12 | 20.11785 | 86.15870 | 40763 ft | 528 kts | 115° |
| 2026-04-24 13:12 | 20.09131 | 86.23151 | 40778 ft | 528 kts | 115° |
| 2026-04-24 13:13 | 20.06481 | 86.30426 | 40786 ft | 527 kts | 115° |
| 2026-04-24 13:13 | 20.03827 | 86.37702 | 40791 ft | 527 kts | 115° |
| 2026-04-24 13:14 | 20.01174 | 86.44967 | 40794 ft | 527 kts | 115° |
| 2026-04-24 13:14 | 19.98514 | 86.52236 | 40799 ft | 527 kts | 115° |
| 2026-04-24 13:15 | 19.95854 | 86.59495 | 40802 ft | 527 kts | 115° |
| 2026-04-24 13:15 | 19.93190 | 86.66755 | 40808 ft | 527 kts | 115° |
| 2026-04-24 13:16 | 19.90524 | 86.74010 | 40809 ft | 527 kts | 115° |
| 2026-04-24 13:16 | 19.87851 | 86.81270 | 40814 ft | 528 kts | 115° |
| 2026-04-24 13:17 | 19.85173 | 86.88532 | 40816 ft | 528 kts | 115° |
| 2026-04-24 13:17 | 19.82488 | 86.95803 | 40815 ft | 529 kts | 115° |
| 2026-04-24 13:18 | 19.79797 | 87.03080 | 40813 ft | 530 kts | 115° |
| 2026-04-24 13:18 | 19.77557 | 87.09131 | 40813 ft | 530 kts | 115° |
| 2026-04-24 13:19 | 19.74857 | 87.16412 | 40815 ft | 530 kts | 115° |
| 2026-04-24 13:19 | 19.72155 | 87.23691 | 40817 ft | 530 kts | 115° |
| 2026-04-24 13:20 | 19.69445 | 87.30979 | 40816 ft | 531 kts | 115° |
| 2026-04-24 13:20 | 19.66733 | 87.38263 | 40813 ft | 531 kts | 115° |
| 2026-04-24 13:21 | 19.64018 | 87.45543 | 40814 ft | 531 kts | 115° |
| 2026-04-24 13:21 | 19.61301 | 87.52822 | 40810 ft | 531 kts | 115° |
| 2026-04-24 13:22 | 19.58578 | 87.60102 | 40813 ft | 531 kts | 115° |
| 2026-04-24 13:22 | 19.55854 | 87.67377 | 40813 ft | 531 kts | 115° |
| 2026-04-24 13:23 | 19.53128 | 87.74646 | 40813 ft | 530 kts | 115° |
| 2026-04-24 13:23 | 19.50400 | 87.81909 | 40816 ft | 530 kts | 115° |
| 2026-04-24 13:24 | 19.47670 | 87.89169 | 40813 ft | 530 kts | 115° |
| 2026-04-24 13:24 | 19.44939 | 87.96423 | 40822 ft | 530 kts | 115° |
| 2026-04-24 13:25 | 19.42205 | 88.03675 | 40816 ft | 530 kts | 115° |
| 2026-04-24 13:25 | 19.39467 | 88.10925 | 40819 ft | 530 kts | 115° |
| 2026-04-24 13:26 | 19.36728 | 88.18169 | 40819 ft | 530 kts | 115° |
| 2026-04-24 13:26 | 19.33988 | 88.25404 | 40819 ft | 530 kts | 115° |
| 2026-04-24 13:27 | 19.31242 | 88.32647 | 40823 ft | 530 kts | 115° |
| 2026-04-24 13:27 | 19.28495 | 88.39879 | 40822 ft | 529 kts | 115° |
| 2026-04-24 13:28 | 19.25746 | 88.47109 | 40822 ft | 529 kts | 115° |
| 2026-04-24 13:28 | 19.22995 | 88.54335 | 40824 ft | 529 kts | 115° |
| 2026-04-24 13:29 | 19.20246 | 88.61547 | 40828 ft | 529 kts | 115° |
| 2026-04-24 13:29 | 19.17508 | 88.68768 | 40831 ft | 529 kts | 115° |
| 2026-04-24 13:30 | 19.14849 | 88.76024 | 40828 ft | 529 kts | 114° |
| 2026-04-24 13:30 | 19.12215 | 88.83277 | 40831 ft | 529 kts | 114° |
| 2026-04-24 13:31 | 19.09587 | 88.90481 | 40831 ft | 528 kts | 115° |
| 2026-04-24 13:31 | 19.06935 | 88.97719 | 40831 ft | 528 kts | 115° |
| 2026-04-24 13:32 | 19.04276 | 89.04957 | 40833 ft | 528 kts | 115° |
| 2026-04-24 13:32 | 19.01618 | 89.12184 | 40832 ft | 528 kts | 115° |
| 2026-04-24 13:33 | 18.98959 | 89.19403 | 40831 ft | 527 kts | 115° |
| 2026-04-24 13:33 | 18.96298 | 89.26620 | 40834 ft | 527 kts | 115° |
| 2026-04-24 13:34 | 18.93633 | 89.33836 | 40834 ft | 527 kts | 115° |
| 2026-04-24 13:34 | 18.90967 | 89.41045 | 40833 ft | 527 kts | 115° |
| 2026-04-24 13:35 | 18.88300 | 89.48249 | 40835 ft | 526 kts | 115° |
| 2026-04-24 13:35 | 18.85632 | 89.55443 | 40833 ft | 526 kts | 115° |
| 2026-04-24 13:36 | 18.82962 | 89.62633 | 40834 ft | 526 kts | 115° |
| 2026-04-24 13:36 | 18.80293 | 89.69814 | 40837 ft | 526 kts | 115° |
| 2026-04-24 13:37 | 18.77619 | 89.76995 | 40837 ft | 526 kts | 115° |
| 2026-04-24 13:37 | 18.74944 | 89.84169 | 40837 ft | 526 kts | 115° |
| 2026-04-24 13:38 | 18.72266 | 89.91343 | 40835 ft | 525 kts | 115° |
| 2026-04-24 13:38 | 18.69586 | 89.98513 | 40838 ft | 525 kts | 115° |
| 2026-04-24 13:39 | 18.66904 | 90.05677 | 40836 ft | 525 kts | 115° |
| 2026-04-24 13:39 | 18.64217 | 90.12845 | 40837 ft | 525 kts | 115° |
| 2026-04-24 13:40 | 18.61532 | 90.20001 | 40836 ft | 525 kts | 115° |
| 2026-04-24 13:40 | 18.58863 | 90.27107 | 40837 ft | 525 kts | 115° |
| 2026-04-24 13:41 | 18.56174 | 90.34256 | 40838 ft | 525 kts | 115° |
| 2026-04-24 13:41 | 18.53482 | 90.41399 | 40839 ft | 525 kts | 115° |
| 2026-04-24 13:42 | 18.50787 | 90.48542 | 40838 ft | 524 kts | 115° |
| 2026-04-24 13:42 | 18.48089 | 90.55683 | 40839 ft | 524 kts | 115° |
| 2026-04-24 13:43 | 18.45390 | 90.62818 | 40842 ft | 524 kts | 115° |
| 2026-04-24 13:43 | 18.42692 | 90.69944 | 40840 ft | 524 kts | 115° |
| 2026-04-24 13:44 | 18.39990 | 90.77071 | 40837 ft | 524 kts | 115° |
| 2026-04-24 13:44 | 18.37285 | 90.84194 | 40840 ft | 524 kts | 115° |
| 2026-04-24 13:45 | 18.34577 | 90.91315 | 40838 ft | 524 kts | 115° |
| 2026-04-24 13:45 | 18.31870 | 90.98425 | 40839 ft | 523 kts | 115° |
| 2026-04-24 13:46 | 18.29162 | 91.05531 | 40842 ft | 523 kts | 115° |
| 2026-04-24 13:46 | 18.26448 | 91.12642 | 40835 ft | 523 kts | 115° |
| 2026-04-24 13:47 | 18.23735 | 91.19741 | 40837 ft | 523 kts | 115° |
| 2026-04-24 13:47 | 18.21020 | 91.26836 | 40837 ft | 523 kts | 115° |
| 2026-04-24 13:48 | 18.18305 | 91.33922 | 40837 ft | 522 kts | 115° |
| 2026-04-24 13:48 | 18.15604 | 91.40963 | 40837 ft | 522 kts | 115° |
| 2026-04-24 13:49 | 18.12886 | 91.48040 | 40838 ft | 522 kts | 115° |
| 2026-04-24 13:49 | 18.10166 | 91.55111 | 40841 ft | 522 kts | 115° |
| 2026-04-24 13:50 | 18.07444 | 91.62181 | 40840 ft | 521 kts | 115° |
| 2026-04-24 13:50 | 18.04722 | 91.69238 | 40840 ft | 521 kts | 115° |
| 2026-04-24 13:51 | 18.01999 | 91.76293 | 40840 ft | 521 kts | 115° |
| 2026-04-24 13:51 | 17.99274 | 91.83342 | 40837 ft | 521 kts | 115° |
| 2026-04-24 13:52 | 17.96546 | 91.90392 | 40839 ft | 520 kts | 115° |
| 2026-04-24 13:52 | 17.93819 | 91.97430 | 40841 ft | 520 kts | 115° |
| 2026-04-24 13:53 | 17.91074 | 92.04451 | 40840 ft | 520 kts | 116° |
| 2026-04-24 13:53 | 17.88297 | 92.11461 | 40839 ft | 519 kts | 116° |
| 2026-04-24 13:54 | 17.85520 | 92.18453 | 40839 ft | 519 kts | 116° |
| 2026-04-24 13:54 | 17.82743 | 92.25447 | 40840 ft | 519 kts | 116° |
| 2026-04-24 13:55 | 17.79966 | 92.32440 | 40838 ft | 519 kts | 116° |
| 2026-04-24 13:55 | 17.77189 | 92.39426 | 40842 ft | 519 kts | 116° |
| 2026-04-24 13:56 | 17.74411 | 92.46407 | 40843 ft | 519 kts | 116° |
| 2026-04-24 13:56 | 17.71629 | 92.53388 | 40842 ft | 518 kts | 116° |
| 2026-04-24 13:57 | 17.68849 | 92.60356 | 40843 ft | 518 kts | 116° |
| 2026-04-24 13:57 | 17.66064 | 92.67330 | 40839 ft | 518 kts | 116° |
| 2026-04-24 13:58 | 17.63278 | 92.74298 | 40840 ft | 518 kts | 116° |
| 2026-04-24 13:58 | 17.60491 | 92.81258 | 40833 ft | 518 kts | 116° |
| 2026-04-24 13:59 | 17.57700 | 92.88222 | 40850 ft | 518 kts | 116° |
| 2026-04-24 13:59 | 17.54928 | 92.95133 | 40843 ft | 518 kts | 116° |
| 2026-04-24 14:00 | 17.52134 | 93.02085 | 40846 ft | 518 kts | 116° |
| 2026-04-24 14:00 | 17.49339 | 93.09033 | 40845 ft | 518 kts | 116° |
| 2026-04-24 14:01 | 17.46543 | 93.15979 | 40848 ft | 517 kts | 116° |
| 2026-04-24 14:01 | 17.43744 | 93.22919 | 40844 ft | 517 kts | 116° |
| 2026-04-24 14:02 | 17.40943 | 93.29859 | 40838 ft | 517 kts | 116° |
| 2026-04-24 14:02 | 17.38143 | 93.36789 | 40847 ft | 517 kts | 116° |
| 2026-04-24 14:03 | 17.35337 | 93.43723 | 40835 ft | 517 kts | 116° |
| 2026-04-24 14:03 | 17.33002 | 93.49486 | 40845 ft | 517 kts | 116° |
| 2026-04-24 14:04 | 17.29718 | 93.57586 | 40836 ft | 517 kts | 116° |
| 2026-04-24 14:04 | 17.26907 | 93.64508 | 40835 ft | 517 kts | 116° |
| 2026-04-24 14:05 | 17.24566 | 93.70268 | 40843 ft | 518 kts | 116° |
| 2026-04-24 14:05 | 17.21748 | 93.77197 | 40845 ft | 518 kts | 116° |
| 2026-04-24 14:06 | 17.18927 | 93.84123 | 40841 ft | 518 kts | 116° |
| 2026-04-24 14:06 | 17.16103 | 93.91050 | 40839 ft | 518 kts | 116° |
| 2026-04-24 14:07 | 17.13275 | 93.97975 | 40843 ft | 518 kts | 116° |
| 2026-04-24 14:07 | 17.10444 | 94.04901 | 40839 ft | 518 kts | 116° |
| 2026-04-24 14:08 | 17.07609 | 94.11830 | 40835 ft | 518 kts | 116° |
| 2026-04-24 14:08 | 17.04774 | 94.18751 | 40837 ft | 518 kts | 116° |
| 2026-04-24 14:09 | 17.01934 | 94.25677 | 40837 ft | 518 kts | 116° |
| 2026-04-24 14:09 | 16.99092 | 94.32599 | 40840 ft | 518 kts | 116° |
| 2026-04-24 14:10 | 16.96246 | 94.39522 | 40842 ft | 518 kts | 116° |
| 2026-04-24 14:10 | 16.93399 | 94.46439 | 40835 ft | 519 kts | 116° |
| 2026-04-24 14:11 | 16.90549 | 94.53358 | 40836 ft | 519 kts | 116° |
| 2026-04-24 14:12 | 16.86272 | 94.63729 | 40839 ft | 518 kts | 116° |
| 2026-04-24 14:12 | 16.83416 | 94.70642 | 40838 ft | 518 kts | 116° |
| 2026-04-24 14:13 | 16.80545 | 94.77539 | 40839 ft | 518 kts | 116° |
| 2026-04-24 14:13 | 16.77425 | 94.84303 | 40835 ft | 517 kts | 119° |
| 2026-04-24 14:14 | 16.74163 | 94.90980 | 40837 ft | 516 kts | 119° |
| 2026-04-24 14:14 | 16.69254 | 95.00973 | 40840 ft | 516 kts | 119° |
| 2026-04-24 14:15 | 16.66020 | 95.07599 | 40838 ft | 516 kts | 119° |
| 2026-04-24 14:15 | 16.62773 | 95.14261 | 40832 ft | 516 kts | 119° |
| 2026-04-24 14:16 | 16.59521 | 95.20927 | 40831 ft | 515 kts | 119° |
| 2026-04-24 14:17 | 16.54646 | 95.30905 | 40825 ft | 515 kts | 119° |
| 2026-04-24 14:17 | 16.49773 | 95.40864 | 40829 ft | 514 kts | 119° |
| 2026-04-24 14:18 | 16.46524 | 95.47496 | 40828 ft | 514 kts | 119° |
| 2026-04-24 14:18 | 16.43275 | 95.54119 | 40826 ft | 513 kts | 119° |
| 2026-04-24 14:19 | 16.40027 | 95.60736 | 40832 ft | 513 kts | 119° |
| 2026-04-24 14:19 | 16.36786 | 95.67333 | 40827 ft | 512 kts | 119° |
| 2026-04-24 14:20 | 16.33540 | 95.73931 | 40824 ft | 511 kts | 119° |
| 2026-04-24 14:20 | 16.30299 | 95.80514 | 40828 ft | 511 kts | 119° |
| 2026-04-24 14:21 | 16.27060 | 95.87088 | 40826 ft | 510 kts | 119° |
| 2026-04-24 14:21 | 16.23825 | 95.93647 | 40828 ft | 509 kts | 119° |
| 2026-04-24 14:22 | 16.20591 | 96.00195 | 40825 ft | 509 kts | 119° |
| 2026-04-24 14:23 | 16.15746 | 96.09998 | 40826 ft | 507 kts | 119° |
| 2026-04-24 14:23 | 16.12515 | 96.16526 | 40827 ft | 507 kts | 119° |
| 2026-04-24 14:24 | 16.09314 | 96.22987 | 40824 ft | 506 kts | 119° |
| 2026-04-24 14:24 | 16.06090 | 96.29491 | 40828 ft | 505 kts | 119° |
| 2026-04-24 14:25 | 16.02870 | 96.35978 | 40829 ft | 505 kts | 119° |
| 2026-04-24 14:25 | 15.99653 | 96.42454 | 40830 ft | 504 kts | 119° |
| 2026-04-24 14:26 | 15.96436 | 96.48924 | 40832 ft | 504 kts | 119° |
| 2026-04-24 14:26 | 15.93223 | 96.55381 | 40834 ft | 503 kts | 118° |
| 2026-04-24 14:27 | 15.90005 | 96.61842 | 40836 ft | 503 kts | 118° |
| 2026-04-24 14:27 | 15.86789 | 96.68292 | 40834 ft | 503 kts | 118° |
| 2026-04-24 14:28 | 15.83573 | 96.74736 | 40841 ft | 503 kts | 118° |
| 2026-04-24 14:28 | 15.80357 | 96.81175 | 40839 ft | 502 kts | 118° |
| 2026-04-24 14:29 | 15.77138 | 96.87614 | 40839 ft | 502 kts | 118° |
| 2026-04-24 14:29 | 15.73921 | 96.94044 | 40841 ft | 502 kts | 118° |
| 2026-04-24 14:30 | 15.71243 | 96.99390 | 40840 ft | 502 kts | 118° |
| 2026-04-24 14:30 | 15.67477 | 97.06904 | 40846 ft | 502 kts | 118° |
| 2026-04-24 14:31 | 15.64254 | 97.13328 | 40846 ft | 502 kts | 118° |
| 2026-04-24 14:31 | 15.61029 | 97.19750 | 40843 ft | 502 kts | 118° |
| 2026-04-24 14:32 | 15.57824 | 97.26126 | 40848 ft | 502 kts | 118° |
| 2026-04-24 14:32 | 15.54596 | 97.32543 | 40849 ft | 501 kts | 118° |
| 2026-04-24 14:33 | 15.51372 | 97.38947 | 40854 ft | 501 kts | 118° |
| 2026-04-24 14:33 | 15.48145 | 97.45348 | 40856 ft | 501 kts | 118° |
| 2026-04-24 14:34 | 15.44919 | 97.51747 | 40857 ft | 500 kts | 118° |
| 2026-04-24 14:34 | 15.41696 | 97.58131 | 40858 ft | 500 kts | 118° |
| 2026-04-24 14:35 | 15.38472 | 97.64513 | 40860 ft | 499 kts | 118° |
| 2026-04-24 14:35 | 15.35249 | 97.70886 | 40868 ft | 499 kts | 118° |
| 2026-04-24 14:36 | 15.32027 | 97.77250 | 40867 ft | 498 kts | 118° |
| 2026-04-24 14:36 | 15.28809 | 97.83602 | 40875 ft | 498 kts | 118° |
| 2026-04-24 14:37 | 15.25590 | 97.89950 | 40880 ft | 497 kts | 118° |
| 2026-04-24 14:37 | 15.22372 | 97.96291 | 40881 ft | 497 kts | 118° |
| 2026-04-24 14:38 | 15.19145 | 98.02615 | 40888 ft | 497 kts | 119° |
| 2026-04-24 14:38 | 15.15906 | 98.08923 | 40893 ft | 496 kts | 119° |
| 2026-04-24 14:39 | 15.12681 | 98.15235 | 40892 ft | 496 kts | 118° |
| 2026-04-24 14:39 | 15.09487 | 98.21517 | 40897 ft | 496 kts | 118° |
| 2026-04-24 14:40 | 15.06326 | 98.27861 | 40903 ft | 496 kts | 118° |
| 2026-04-24 14:40 | 15.03171 | 98.34206 | 40911 ft | 496 kts | 118° |
| 2026-04-24 14:41 | 15.00017 | 98.40556 | 40911 ft | 496 kts | 118° |
| 2026-04-24 14:41 | 14.96859 | 98.46898 | 40911 ft | 496 kts | 118° |
| 2026-04-24 14:42 | 14.94210 | 98.52213 | 40916 ft | 496 kts | 118° |
| 2026-04-24 14:42 | 14.90535 | 98.59576 | 40923 ft | 496 kts | 118° |
| 2026-04-24 14:43 | 14.87374 | 98.65905 | 40922 ft | 495 kts | 118° |
| 2026-04-24 14:43 | 14.84212 | 98.72230 | 40923 ft | 495 kts | 118° |
| 2026-04-24 14:44 | 14.81050 | 98.78551 | 40925 ft | 495 kts | 118° |
| 2026-04-24 14:44 | 14.77884 | 98.84872 | 40922 ft | 495 kts | 118° |
| 2026-04-24 14:45 | 14.74722 | 98.91181 | 40923 ft | 495 kts | 118° |
| 2026-04-24 14:45 | 14.71832 | 98.96942 | 40921 ft | 494 kts | 118° |
| 2026-04-24 14:46 | 14.68745 | 99.03092 | 40921 ft | 494 kts | 118° |
| 2026-04-24 14:46 | 14.65578 | 99.09396 | 40918 ft | 494 kts | 118° |
| 2026-04-24 14:46 | 14.63995 | 99.12545 | 40750 ft | 495 kts | 118° |
| 2026-04-24 14:47 | 14.62947 | 99.14631 | 40450 ft | 495 kts | 118° |
| 2026-04-24 14:47 | 14.60817 | 99.18863 | 39716 ft | 497 kts | 118° |
| 2026-04-24 14:47 | 14.59223 | 99.22030 | 39169 ft | 498 kts | 118° |
| 2026-04-24 14:47 | 14.57624 | 99.25205 | 38612 ft | 500 kts | 118° |
| 2026-04-24 14:48 | 14.56017 | 99.28395 | 37980 ft | 502 kts | 117° |
| 2026-04-24 14:48 | 14.54402 | 99.31599 | 37361 ft | 504 kts | 117° |
| 2026-04-24 14:48 | 14.52783 | 99.34810 | 36754 ft | 505 kts | 117° |
| 2026-04-24 14:48 | 14.51156 | 99.38036 | 36174 ft | 507 kts | 117° |
| 2026-04-24 14:49 | 14.49528 | 99.41263 | 35596 ft | 508 kts | 117° |
| 2026-04-24 14:49 | 14.47895 | 99.44498 | 35039 ft | 509 kts | 117° |
| 2026-04-24 14:49 | 14.46260 | 99.47736 | 34486 ft | 510 kts | 117° |
| 2026-04-24 14:49 | 14.44695 | 99.51024 | 33937 ft | 511 kts | 111° |
| 2026-04-24 14:50 | 14.43757 | 99.54502 | 33345 ft | 511 kts | 98° |
| 2026-04-24 14:50 | 14.43415 | 99.58148 | 32744 ft | 511 kts | 93° |
| 2026-04-24 14:50 | 14.43207 | 99.61812 | 32156 ft | 513 kts | 92° |
| 2026-04-24 14:50 | 14.43008 | 99.65492 | 31580 ft | 514 kts | 92° |
| 2026-04-24 14:51 | 14.42798 | 99.69173 | 31018 ft | 515 kts | 92° |
| 2026-04-24 14:51 | 14.42577 | 99.72867 | 30457 ft | 516 kts | 92° |
| 2026-04-24 14:51 | 14.42349 | 99.76565 | 29913 ft | 517 kts | 92° |
| 2026-04-24 14:51 | 14.42117 | 99.80270 | 29282 ft | 518 kts | 92° |
| 2026-04-24 14:52 | 14.41884 | 99.83967 | 28663 ft | 515 kts | 92° |
| 2026-04-24 14:52 | 14.41651 | 99.87639 | 28045 ft | 510 kts | 92° |
| 2026-04-24 14:52 | 14.41419 | 99.91265 | 27450 ft | 503 kts | 92° |
| 2026-04-24 14:52 | 14.41267 | 99.93639 | 27048 ft | 499 kts | 92° |
| 2026-04-24 14:53 | 14.41039 | 99.97187 | 26487 ft | 492 kts | 92° |
| 2026-04-24 14:53 | 14.40813 | 100.00683 | 25926 ft | 486 kts | 92° |
| 2026-04-24 14:53 | 14.40492 | 100.05294 | 25182 ft | 478 kts | 96° |
| 2026-04-24 14:53 | 14.39857 | 100.08643 | 24648 ft | 473 kts | 102° |
| 2026-04-24 14:54 | 14.39328 | 100.10808 | 24294 ft | 469 kts | 103° |
| 2026-04-24 14:54 | 14.38506 | 100.14044 | 23774 ft | 464 kts | 104° |
| 2026-04-24 14:54 | 14.37690 | 100.17239 | 23202 ft | 456 kts | 104° |
| 2026-04-24 14:54 | 14.36910 | 100.20310 | 22592 ft | 429 kts | 104° |
| 2026-04-24 14:55 | 14.36175 | 100.23215 | 22012 ft | 411 kts | 104° |
| 2026-04-24 14:55 | 14.35459 | 100.26059 | 21495 ft | 408 kts | 104° |
| 2026-04-24 14:55 | 14.34749 | 100.28884 | 20989 ft | 405 kts | 104° |
| 2026-04-24 14:55 | 14.33821 | 100.32583 | 20334 ft | 400 kts | 104° |
| 2026-04-24 14:56 | 14.33350 | 100.34458 | 20000 ft | 398 kts | 104° |
| 2026-04-24 14:56 | 14.32660 | 100.37209 | 19516 ft | 395 kts | 104° |
| 2026-04-24 14:56 | 14.31975 | 100.39937 | 19043 ft | 391 kts | 104° |
| 2026-04-24 14:56 | 14.31304 | 100.42608 | 18565 ft | 374 kts | 104° |
| 2026-04-24 14:57 | 14.30670 | 100.45137 | 18086 ft | 354 kts | 104° |
| 2026-04-24 14:57 | 14.30067 | 100.47536 | 17549 ft | 338 kts | 104° |
| 2026-04-24 14:57 | 14.29484 | 100.49850 | 17022 ft | 331 kts | 104° |
| 2026-04-24 14:57 | 14.28908 | 100.52138 | 16509 ft | 329 kts | 104° |
| 2026-04-24 14:58 | 14.28336 | 100.54410 | 16002 ft | 326 kts | 104° |
| 2026-04-24 14:58 | 14.27767 | 100.56669 | 15504 ft | 324 kts | 104° |
| 2026-04-24 14:58 | 14.27202 | 100.58909 | 15012 ft | 322 kts | 104° |
| 2026-04-24 14:58 | 14.26631 | 100.61145 | 14539 ft | 325 kts | 104° |
| 2026-04-24 14:59 | 14.25887 | 100.63345 | 14062 ft | 326 kts | 117° |
| 2026-04-24 14:59 | 14.24434 | 100.65123 | 13577 ft | 328 kts | 143° |
| 2026-04-24 14:59 | 14.22360 | 100.66073 | 13049 ft | 329 kts | 169° |
| 2026-04-24 14:59 | 14.20089 | 100.66018 | 12531 ft | 329 kts | 191° |
| 2026-04-24 15:00 | 14.17872 | 100.65425 | 12021 ft | 329 kts | 195° |
| 2026-04-24 15:00 | 14.15673 | 100.64775 | 11519 ft | 329 kts | 195° |
| 2026-04-24 15:00 | 14.14960 | 100.64567 | 11356 ft | 329 kts | 195° |
| 2026-04-24 15:00 | 14.13953 | 100.64279 | 11118 ft | 328 kts | 195° |
| 2026-04-24 15:01 | 14.11779 | 100.63672 | 10638 ft | 328 kts | 194° |
| 2026-04-24 15:01 | 14.09575 | 100.63073 | 10151 ft | 327 kts | 194° |
| 2026-04-24 15:01 | 14.07383 | 100.62485 | 9671 ft | 326 kts | 194° |
| 2026-04-24 15:01 | 14.05209 | 100.61905 | 9384 ft | 316 kts | 194° |
| 2026-04-24 15:02 | 14.03124 | 100.61347 | 9244 ft | 303 kts | 193° |
| 2026-04-24 15:02 | 14.01083 | 100.61194 | 9097 ft | 289 kts | 169° |
| 2026-04-24 15:02 | 13.99340 | 100.62029 | 8969 ft | 273 kts | 138° |
| 2026-04-24 15:02 | 13.98313 | 100.63606 | 8725 ft | 264 kts | 109° |
| 2026-04-24 15:03 | 13.97833 | 100.65411 | 8444 ft | 259 kts | 103° |
| 2026-04-24 15:03 | 13.97431 | 100.67212 | 8138 ft | 257 kts | 103° |
| 2026-04-24 15:03 | 13.97072 | 100.69010 | 7815 ft | 256 kts | 96° |
| 2026-04-24 15:03 | 13.97257 | 100.70816 | 7456 ft | 256 kts | 69° |
| 2026-04-24 15:04 | 13.98312 | 100.72258 | 7112 ft | 257 kts | 37° |
| 2026-04-24 15:04 | 13.99937 | 100.73005 | 6794 ft | 257 kts | 18° |
| 2026-04-24 15:04 | 14.01649 | 100.73513 | 6473 ft | 255 kts | 21° |
| 2026-04-24 15:04 | 14.03089 | 100.74520 | 6140 ft | 251 kts | 53° |
| 2026-04-24 15:05 | 14.03744 | 100.76125 | 5863 ft | 244 kts | 84° |
| 2026-04-24 15:05 | 14.03576 | 100.77837 | 5587 ft | 240 kts | 103° |
| 2026-04-24 15:05 | 14.03110 | 100.79479 | 5338 ft | 238 kts | 112° |
| 2026-04-24 15:05 | 14.02182 | 100.80870 | 5112 ft | 238 kts | 140° |
| 2026-04-24 15:06 | 14.00659 | 100.81491 | 5046 ft | 240 kts | 172° |
| 2026-04-24 15:06 | 13.98992 | 100.81444 | 5025 ft | 238 kts | 186° |
| 2026-04-24 15:06 | 13.97419 | 100.81106 | 5016 ft | 224 kts | 192° |
| 2026-04-24 15:06 | 13.95962 | 100.80713 | 5014 ft | 210 kts | 192° |
| 2026-04-24 15:07 | 13.94566 | 100.80334 | 4931 ft | 207 kts | 192° |
| 2026-04-24 15:07 | 13.93174 | 100.79961 | 4707 ft | 207 kts | 192° |
| 2026-04-24 15:07 | 13.91776 | 100.79594 | 4395 ft | 208 kts | 192° |
| 2026-04-24 15:07 | 13.90362 | 100.79223 | 4072 ft | 211 kts | 192° |
| 2026-04-24 15:08 | 13.88934 | 100.78846 | 3761 ft | 213 kts | 192° |
| 2026-04-24 15:08 | 13.87511 | 100.78469 | 3497 ft | 210 kts | 192° |
| 2026-04-24 15:08 | 13.86103 | 100.78097 | 3211 ft | 208 kts | 192° |
| 2026-04-24 15:08 | 13.84710 | 100.77730 | 2908 ft | 206 kts | 191° |
| 2026-04-24 15:09 | 13.83333 | 100.77369 | 2627 ft | 202 kts | 192° |
| 2026-04-24 15:09 | 13.81988 | 100.77013 | 2378 ft | 197 kts | 192° |
| 2026-04-24 15:09 | 13.80676 | 100.76666 | 2089 ft | 190 kts | 192° |
| 2026-04-24 15:09 | 13.79443 | 100.76340 | 1856 ft | 176 kts | 192° |
| 2026-04-24 15:10 | 13.78313 | 100.76042 | 1641 ft | 161 kts | 193° |
| 2026-04-24 15:10 | 13.77263 | 100.75764 | 1424 ft | 150 kts | 193° |
| 2026-04-24 15:10 | 13.76283 | 100.75508 | 1221 ft | 139 kts | 194° |
| 2026-04-24 15:10 | 13.75379 | 100.75260 | 1054 ft | 131 kts | 193° |
| 2026-04-24 15:11 | 13.75083 | 100.75175 | 1012 ft | 131 kts | 194° |
| 2026-04-24 15:11 | 13.74386 | 100.74987 | 901 ft | 132 kts | 195° |
| 2026-04-24 15:11 | 13.73499 | 100.74753 | 735 ft | 133 kts | 194° |
| 2026-04-24 15:11 | 13.72601 | 100.74524 | 546 ft | 132 kts | 195° |
| 2026-04-24 15:12 | 13.71719 | 100.74286 | 338 ft | 131 kts | 193° |
| 2026-04-24 15:12 | 13.69975 | 100.73832 | 52 ft | 129 kts | 194° |
| 2026-04-24 15:12 | 13.69128 | 100.73614 | 22 ft | 120 kts | 193° |
| 2026-04-24 15:13 | 13.68606 | 100.73476 | 19 ft | 32 kts | 194° |
| 2026-04-24 15:13 | 13.68401 | 100.73455 | 18 ft | 29 kts | 175° |
| 2026-04-24 15:13 | 13.68239 | 100.73501 | 20 ft | 18 kts | 139° |
| 2026-04-24 15:13 | 13.68230 | 100.73545 | 20 ft | 4 kts | 68° |
| 2026-04-24 15:14 | 13.68268 | 100.73574 | 20 ft | 10 kts | 22° |
| 2026-04-24 15:14 | 13.68368 | 100.73603 | 20 ft | 19 kts | 14° |
| 2026-04-24 15:14 | 13.68524 | 100.73644 | 19 ft | 27 kts | 14° |
| 2026-04-24 15:14 | 13.68724 | 100.73697 | 20 ft | 24 kts | 14° |
| 2026-04-24 15:15 | 13.68785 | 100.73775 | 20 ft | 10 kts | 103° |
| 2026-04-24 15:15 | 13.68769 | 100.73851 | 20 ft | 12 kts | 102° |
| 2026-04-24 15:15 | 13.68746 | 100.73942 | 21 ft | 14 kts | 106° |
| 2026-04-24 15:15 | 13.68718 | 100.74048 | 22 ft | 17 kts | 104° |
| 2026-04-24 15:16 | 13.68686 | 100.74176 | 20 ft | 20 kts | 105° |
| 2026-04-24 15:16 | 13.68658 | 100.74319 | 20 ft | 20 kts | 83° |
| 2026-04-24 15:16 | 13.68757 | 100.74386 | 20 ft | 19 kts | 15° |
| 2026-04-24 15:16 | 13.68890 | 100.74422 | 20 ft | 21 kts | 13° |
| 2026-04-24 15:17 | 13.68973 | 100.74444 | 20 ft | 9 kts | 15° |
| 2026-04-24 15:17 | 13.69005 | 100.74475 | 20 ft | 3 kts | 90° |
| 2026-04-24 15:17 | 13.69002 | 100.74510 | 20 ft | 6 kts | 100° |
| 2026-04-24 15:17 | 13.68995 | 100.74538 | 20 ft | 1 kts | 105° |
| 2026-04-24 15:18 | 13.68994 | 100.74543 | 20 ft | 0 kts | 105° |